Time;durP1;ratioP1;P1;durP2;ratioP2;P2;SDS_P1;SDS_P2;PMS_P1;PMS_P2;Temp;Humidity;BMP_temperature;BMP_pressure;BME280_temperature;BME280_humidity;BME280_pressure;Samples;Min_cycle;Max_cycle;Signal;HPM_P1;HPM_P2
2021/03/02 00:01:48;;;;;;;86.82;29.35;;;;;;;2.00;77.09;99493.44;9919994;29;20058;-79
2021/03/02 00:07:09;;;;;;;76.65;28.15;;;;;;;1.99;77.64;99486.44;9919922;29;20104;-78
2021/03/02 00:12:29;;;;;;;68.50;27.30;;;;;;;1.93;78.17;99485.66;9907525;29;20055;-79
2021/03/02 00:17:51;;;;;;;61.33;28.10;;;;;;;2.00;78.24;99488.69;9919737;29;20126;-79
2021/03/02 00:23:18;;;;;;;99.00;28.90;;;;;;;2.04;78.25;99482.97;9932106;29;20055;-78
2021/03/02 00:28:38;;;;;;;55.47;28.20;;;;;;;2.01;78.35;99481.94;9907932;29;20051;-78
2021/03/02 00:33:57;;;;;;;77.35;28.85;;;;;;;2.00;78.85;99479.69;9919124;29;20057;-78
2021/03/02 00:39:17;;;;;;;56.20;27.80;;;;;;;2.07;78.41;99476.47;9939250;29;20054;-78
2021/03/02 00:44:37;;;;;;;57.38;27.00;;;;;;;2.10;78.67;99480.97;9926449;29;20104;-78
2021/03/02 00:49:57;;;;;;;60.75;26.30;;;;;;;2.17;78.75;99482.50;9926516;29;20399;-78
2021/03/02 00:55:17;;;;;;;70.30;27.13;;;;;;;2.09;79.67;99489.75;9938882;29;20050;-79
2021/03/02 01:00:37;;;;;;;68.50;27.52;;;;;;;2.07;79.29;99486.72;9926012;29;20069;-78
2021/03/02 01:06:01;;;;;;;53.85;25.92;;;;;;;2.09;78.95;99489.75;9914623;29;20047;-79
2021/03/02 01:11:22;;;;;;;55.47;25.65;;;;;;;2.15;78.75;99482.25;9925887;29;20107;-78
2021/03/02 01:16:44;;;;;;;52.58;24.67;;;;;;;2.15;79.08;99474.75;9937741;29;20480;-78
2021/03/02 01:22:04;;;;;;;66.25;25.10;;;;;;;2.18;79.16;99467.47;9937888;29;20057;-78
2021/03/02 01:27:24;;;;;;;64.53;25.73;;;;;;;2.17;79.17;99466.72;9912636;29;20495;-78
2021/03/02 01:32:44;;;;;;;43.92;23.95;;;;;;;2.19;78.68;99466.97;9924910;29;20056;-78
2021/03/02 01:38:05;;;;;;;46.45;23.65;;;;;;;2.15;78.89;99460.22;9912408;29;20077;-78
2021/03/02 01:43:24;;;;;;;50.22;23.38;;;;;;;2.12;79.09;99463.94;9937236;29;20453;-78
2021/03/02 01:48:44;;;;;;;55.80;24.38;;;;;;;2.14;79.30;99469.72;9936350;29;20453;-78
2021/03/02 01:54:04;;;;;;;69.43;25.02;;;;;;;2.13;79.47;99457.97;9936842;29;20123;-78
2021/03/02 01:59:24;;;;;;;61.40;24.88;;;;;;;2.11;79.54;99457.69;9923923;29;20499;-78
2021/03/02 02:05:05;;;;;;;48.78;24.88;;;;;;;2.07;79.41;99468.19;9923111;29;20506;-78
2021/03/02 02:10:33;;;;;;;65.97;24.58;;;;;;;2.01;80.22;99468.16;9911205;29;20050;-79
2021/03/02 02:15:55;;;;;;;46.15;24.67;;;;;;;2.04;79.93;99465.69;9911534;29;20082;-78
2021/03/02 02:21:21;;;;;;;59.83;24.75;;;;;;;2.05;80.05;99467.94;9922924;29;20047;-79
2021/03/02 02:26:58;;;;;;;45.47;22.80;;;;;;;1.97;79.74;99470.41;9922899;29;20063;-78
2021/03/02 02:32:17;;;;;;;46.10;21.73;;;;;;;2.02;79.76;99463.41;9934940;29;20043;-78
2021/03/02 02:37:37;;;;;;;47.03;21.33;;;;;;;2.03;79.89;99455.91;9935105;29;20050;-78
2021/03/02 02:42:57;;;;;;;69.15;24.02;;;;;;;2.06;80.25;99463.19;9922289;29;20111;-78
2021/03/02 02:48:17;;;;;;;45.78;21.77;;;;;;;1.99;79.88;99453.38;9921860;29;20051;-78
2021/03/02 02:53:37;;;;;;;44.08;21.85;;;;;;;1.99;80.11;99454.13;9922046;29;20111;-77
2021/03/02 02:59:04;;;;;;;51.50;23.17;;;;;;;2.01;80.14;99453.63;9933756;29;20051;-79
2021/03/02 03:04:31;;;;;;;44.40;21.00;;;;;;;1.93;80.37;99455.34;9909312;29;20408;-79
2021/03/02 03:09:52;;;;;;;53.33;21.58;;;;;;;1.93;80.53;99456.13;9934103;29;20125;-78
2021/03/02 03:15:13;;;;;;;72.70;21.23;;;;;;;1.92;80.30;99453.84;9921717;29;20058;-78
2021/03/02 03:20:33;;;;;;;37.80;19.50;;;;;;;1.91;79.71;99457.84;9921429;29;20057;-79
2021/03/02 03:25:53;;;;;;;47.25;21.98;;;;;;;1.85;80.54;99457.09;9920883;29;20128;-78
2021/03/02 03:31:12;;;;;;;41.67;22.50;;;;;;;1.85;80.75;99449.59;9920898;29;20471;-77
2021/03/02 03:36:32;;;;;;;47.22;21.15;;;;;;;1.87;81.09;99447.09;9933100;29;20051;-77
2021/03/02 03:41:52;;;;;;;56.03;20.80;;;;;;;1.85;80.89;99455.09;9933063;29;20047;-78
2021/03/02 03:47:12;;;;;;;47.78;21.63;;;;;;;1.79;81.23;99457.06;9920118;29;20153;-78
2021/03/02 03:52:33;;;;;;;45.72;20.55;;;;;;;1.78;80.90;99466.56;9932769;29;20047;-78
2021/03/02 03:57:53;;;;;;;53.85;21.85;;;;;;;1.76;81.25;99460.81;9933121;29;20129;-78
2021/03/02 04:03:13;;;;;;;77.68;24.40;;;;;;;1.82;81.46;99467.09;9919970;29;20503;-78
2021/03/02 04:08:33;;;;;;;50.25;20.90;;;;;;;1.84;81.34;99461.09;9919654;29;20487;-78
2021/03/02 04:13:54;;;;;;;42.40;20.92;;;;;;;1.80;81.44;99464.06;9919711;29;20057;-78
2021/03/02 04:19:14;;;;;;;69.38;22.30;;;;;;;1.72;81.54;99468.53;9907010;29;20058;-78
2021/03/02 04:24:34;;;;;;;60.92;24.30;;;;;;;1.64;81.73;99454.50;9919332;29;20559;-78
2021/03/02 04:29:54;;;;;;;58.22;23.98;;;;;;;1.73;81.18;99459.03;9932080;29;20047;-78
2021/03/02 04:35:15;;;;;;;50.03;22.85;;;;;;;1.80;81.52;99466.81;9919430;29;20058;-77
2021/03/02 04:40:36;;;;;;;53.38;22.98;;;;;;;1.85;81.22;99466.13;9906932;29;20081;-78
2021/03/02 04:45:55;;;;;;;59.47;22.50;;;;;;;1.89;81.22;99463.88;9919321;29;20630;-78
2021/03/02 04:51:17;;;;;;;64.65;23.58;;;;;;;1.86;81.65;99466.88;9931830;29;20491;-78
2021/03/02 04:56:37;;;;;;;80.90;26.30;;;;;;;1.86;81.86;99464.13;9919009;29;20404;-78
2021/03/02 05:01:57;;;;;;;65.38;24.52;;;;;;;1.89;82.11;99472.13;9916764;29;20416;-78
2021/03/02 05:07:17;;;;;;;58.45;22.02;;;;;;;1.92;81.40;99481.41;9918409;29;20054;-78
2021/03/02 05:12:36;;;;;;;57.28;22.05;;;;;;;1.91;81.31;99480.66;9918782;29;20051;-78
2021/03/02 05:17:56;;;;;;;69.65;24.00;;;;;;;1.81;81.32;99487.59;9906217;29;20107;-78
2021/03/02 05:23:16;;;;;;;64.18;21.58;;;;;;;1.75;81.48;99486.84;9922484;29;20061;-78
2021/03/02 05:28:36;;;;;;;55.40;21.63;;;;;;;1.73;81.94;99497.56;9925538;29;20071;-78
2021/03/02 05:33:56;;;;;;;66.30;22.35;;;;;;;1.73;81.70;99494.81;9937944;29;20058;-78
2021/03/02 05:39:16;;;;;;;58.08;21.17;;;;;;;1.73;81.94;99509.34;9925450;29;20059;-79
2021/03/02 05:44:35;;;;;;;119.95;23.30;;;;;;;1.72;81.92;99507.09;9924679;29;20496;-80
2021/03/02 05:49:55;;;;;;;50.25;21.05;;;;;;;1.62;82.05;99509.28;9936389;29;20096;-78
2021/03/02 05:55:16;;;;;;;122.40;24.48;;;;;;;1.48;82.75;99512.19;9912671;29;20055;-78
2021/03/02 06:00:35;;;;;;;49.90;20.50;;;;;;;1.52;82.58;99509.97;9924787;29;20057;-78
2021/03/02 06:05:55;;;;;;;63.80;22.52;;;;;;;1.54;82.38;99510.22;9937439;29;20047;-78
2021/03/02 06:11:32;;;;;;;107.20;23.27;;;;;;;1.55;82.47;99509.00;9908737;29;20114;-77
2021/03/02 06:16:52;;;;;;;82.47;21.38;;;;;;;1.55;82.64;99515.25;9912110;29;20049;-78
2021/03/02 06:22:35;;;;;;;58.65;21.85;;;;;;;1.57;81.93;99523.78;9899310;29;20047;-77
2021/03/02 06:27:55;;;;;;;50.13;21.15;;;;;;;1.64;82.04;99528.84;9910926;29;20066;-77
2021/03/02 06:33:18;;;;;;;40.13;20.25;;;;;;;1.74;82.03;99529.38;9861326;29;20055;-77
2021/03/02 06:38:38;;;;;;;42.72;20.42;;;;;;;1.83;82.32;99529.16;9885914;30;20047;-77
2021/03/02 06:43:57;;;;;;;61.88;20.38;;;;;;;1.91;82.29;99532.97;9898384;30;20412;-78
2021/03/02 06:49:17;;;;;;;48.42;22.00;;;;;;;1.84;82.43;99536.22;9898097;30;20055;-78
2021/03/02 06:54:37;;;;;;;66.90;22.83;;;;;;;1.94;81.84;99540.28;9898446;30;20487;-77
2021/03/02 07:00:00;;;;;;;51.83;21.70;;;;;;;1.93;82.05;99536.00;9897922;30;20051;-77
2021/03/02 07:05:20;;;;;;;63.88;22.95;;;;;;;2.00;82.33;99541.03;9915431;29;20066;-77
2021/03/02 07:10:42;;;;;;;46.13;22.13;;;;;;;2.23;81.92;99538.41;9934603;29;20077;-78
2021/03/02 07:16:02;;;;;;;51.13;21.75;;;;;;;2.31;81.91;99533.91;9909914;29;20081;-78
2021/03/02 07:21:23;;;;;;;47.40;22.95;;;;;;;2.38;82.00;99532.69;9909626;29;20641;-76
2021/03/02 07:26:44;;;;;;;46.33;22.02;;;;;;;2.57;81.38;99540.00;9921219;29;20062;-76
2021/03/02 07:32:04;;;;;;;38.28;22.20;;;;;;;2.71;81.35;99543.81;9933214;29;20043;-77
2021/03/02 07:37:25;;;;;;;44.13;22.58;;;;;;;2.88;81.63;99547.34;9883142;29;20076;-76
2021/03/02 07:42:44;;;;;;;50.45;23.10;;;;;;;2.94;80.60;99541.09;9907521;29;20046;-76
2021/03/02 07:48:06;;;;;;;48.13;21.90;;;;;;;2.96;80.58;99547.63;9907786;29;20392;-74
2021/03/02 07:53:26;;;;;;;38.10;20.70;;;;;;;3.01;81.00;99546.13;9894905;29;20058;-73
2021/03/02 07:59:04;;;;;;;58.70;23.17;;;;;;;3.16;81.13;99547.38;9894842;29;20054;-74
2021/03/02 08:04:28;;;;;;;57.85;26.98;;;;;;;3.34;80.75;99542.63;9931784;29;20055;-76
2021/03/02 08:09:49;;;;;;;46.95;23.45;;;;;;;3.30;79.72;99544.91;9907836;29;20102;-76
2021/03/02 08:15:12;;;;;;;40.40;23.05;;;;;;;3.38;80.08;99545.91;9894645;29;20051;-76
2021/03/02 08:20:31;;;;;;;39.72;22.92;;;;;;;3.62;80.21;99550.88;9931752;29;20050;-76
2021/03/02 08:25:51;;;;;;;77.38;24.95;;;;;;;3.76;79.66;99551.88;9906757;29;20055;-75
2021/03/02 08:31:11;;;;;;;48.42;22.83;;;;;;;3.84;79.09;99556.38;9894195;29;20055;-76
2021/03/02 08:36:31;;;;;;;43.75;22.85;;;;;;;3.87;78.94;99566.44;9906619;29;20078;-76
2021/03/02 08:41:51;;;;;;;42.28;23.92;;;;;;;3.67;78.72;99561.19;9906304;29;20479;-77
2021/03/02 08:47:10;;;;;;;47.75;23.80;;;;;;;3.59;78.71;99563.69;9907433;29;20479;-79
2021/03/02 08:52:40;;;;;;;46.83;23.65;;;;;;;3.69;79.05;99567.72;9897484;29;20118;-79
2021/03/02 08:58:01;;;;;;;49.72;24.30;;;;;;;3.81;78.79;99557.38;9910980;29;20054;-78
2021/03/02 09:03:24;;;;;;;36.05;21.85;;;;;;;4.02;78.92;99571.66;9902002;29;20055;-78
2021/03/02 09:09:04;;;;;;;38.03;23.48;;;;;;;4.20;78.02;99568.34;9913691;29;20054;-75
2021/03/02 09:14:35;;;;;;;40.03;24.67;;;;;;;4.26;78.15;99574.63;9913996;29;20055;-76
2021/03/02 09:19:55;;;;;;;49.67;25.50;;;;;;;4.47;78.11;99580.56;9927234;29;20103;-76
2021/03/02 09:25:15;;;;;;;40.10;23.65;;;;;;;4.65;77.75;99586.78;9900037;29;20069;-76
2021/03/02 09:30:35;;;;;;;50.15;26.00;;;;;;;4.63;76.13;99592.06;9937490;29;20047;-76
2021/03/02 09:35:55;;;;;;;38.80;24.25;;;;;;;4.38;76.74;99586.38;9912076;29;20104;-75
2021/03/02 09:41:35;;;;;;;37.13;23.63;;;;;;;4.55;77.02;99578.78;9924855;29;20051;-74
2021/03/02 09:47:01;;;;;;;49.15;25.08;;;;;;;4.68;76.08;99583.75;9924443;29;20046;-75
2021/03/02 09:52:20;;;;;;;40.70;25.75;;;;;;;4.74;76.42;99583.72;9923827;29;20103;-74
2021/03/02 09:58:12;;;;;;;39.35;24.08;;;;;;;4.72;75.97;99595.28;9935754;29;20495;-75
2021/03/02 10:03:38;;;;;;;56.28;26.48;;;;;;;4.72;75.38;99600.81;9936917;29;20484;-75
2021/03/02 10:08:58;;;;;;;36.03;23.85;;;;;;;4.82;74.76;99602.00;9935563;29;20456;-75
2021/03/02 10:14:17;;;;;;;45.00;25.50;;;;;;;4.88;74.55;99594.44;9923469;29;20046;-75
2021/03/02 10:19:38;;;;;;;38.75;24.38;;;;;;;5.12;75.34;99590.31;9935232;29;20058;-75
2021/03/02 10:24:57;;;;;;;40.72;25.27;;;;;;;5.59;75.16;99593.69;9910182;29;20059;-75
2021/03/02 10:30:17;;;;;;;39.33;25.17;;;;;;;5.75;74.15;99589.28;9935520;29;20055;-75
2021/03/02 10:35:37;;;;;;;37.10;24.23;;;;;;;5.81;73.99;99590.00;9922537;29;20055;-75
2021/03/02 10:40:57;;;;;;;41.25;26.42;;;;;;;5.89;72.97;99574.31;9935026;29;20051;-76
2021/03/02 10:46:18;;;;;;;39.60;25.08;;;;;;;5.99;73.41;99571.97;9934681;29;20066;-77
2021/03/02 10:51:38;;;;;;;41.53;25.55;;;;;;;5.84;72.09;99566.78;9934484;29;20055;-76
2021/03/02 10:56:58;;;;;;;44.33;26.90;;;;;;;5.93;72.83;99563.69;9934289;29;20078;-76
2021/03/02 11:02:18;;;;;;;44.75;27.10;;;;;;;6.12;72.36;99569.31;9934089;29;20050;-76
2021/03/02 11:07:38;;;;;;;43.78;26.45;;;;;;;6.29;72.02;99558.03;9909153;29;20046;-79
2021/03/02 11:12:58;;;;;;;45.03;27.13;;;;;;;6.35;71.58;99555.91;9934543;29;20054;-79
2021/03/02 11:18:18;;;;;;;43.08;27.80;;;;;;;6.36;71.43;99540.78;9933843;29;20415;-80
2021/03/02 11:23:41;;;;;;;48.33;29.08;;;;;;;6.69;71.08;99536.09;9921557;29;20062;-79
2021/03/02 11:29:00;;;;;;;46.10;28.48;;;;;;;6.89;71.46;99527.22;9933396;29;20526;-76
2021/03/02 11:34:21;;;;;;;38.70;26.33;;;;;;;7.01;70.63;99525.75;9920293;29;20112;-77
2021/03/02 11:39:41;;;;;;;44.63;29.08;;;;;;;6.94;69.53;99529.16;9920609;29;20051;-74
2021/03/02 11:45:02;;;;;;;45.83;28.77;;;;;;;6.89;69.84;99525.19;9932547;29;20086;-76
2021/03/02 11:50:23;;;;;;;43.13;29.17;;;;;;;6.73;68.28;99526.16;9920147;29;20051;-76
2021/03/02 11:55:43;;;;;;;43.83;28.52;;;;;;;6.63;68.16;99511.19;9907168;29;20047;-75
2021/03/02 12:01:02;;;;;;;46.53;30.17;;;;;;;6.57;68.19;99516.06;9922257;29;20050;-80
2021/03/02 12:06:22;;;;;;;44.95;28.60;;;;;;;6.56;68.32;99509.78;9936778;29;20039;-82
2021/03/02 12:17:34;;;;;;;47.75;30.33;;;;;;;6.75;67.18;99497.88;11899927;24;20115;-88
2021/03/02 12:48:23;;;;;;;50.08;30.17;;;;;;;6.83;65.33;99493.97;11509212;24;20115;-79
2021/03/02 12:59:34;;;;;;;50.70;31.63;;;;;;;6.96;64.66;99484.97;10949048;24;20065;-80
2021/03/02 13:04:54;;;;;;;44.75;29.98;;;;;;;6.79;65.24;99474.13;9929411;29;20057;-78
2021/03/02 13:10:14;;;;;;;52.50;30.08;;;;;;;7.27;65.74;99474.38;9945873;29;20050;-79
2021/03/02 13:15:33;;;;;;;49.95;32.15;;;;;;;7.58;65.19;99481.16;9916866;29;20046;-80
2021/03/02 13:20:58;;;;;;;55.42;34.45;;;;;;;7.66;64.15;99477.19;9893238;30;20096;-77
2021/03/02 13:26:27;;;;;;;54.13;33.38;;;;;;;7.88;64.26;99475.28;9912507;29;20059;-74
2021/03/02 13:31:49;;;;;;;54.58;33.70;;;;;;;8.14;63.79;99477.31;9905335;29;20053;-76
2021/03/02 13:37:09;;;;;;;54.28;34.00;;;;;;;7.97;62.98;99466.50;9905673;29;20122;-79
2021/03/02 13:42:28;;;;;;;53.67;32.80;;;;;;;7.73;62.70;99471.00;9911232;29;20043;-79
2021/03/02 13:47:50;;;;;;;50.80;33.10;;;;;;;7.31;62.84;99460.91;9900469;29;20051;-77
2021/03/02 13:53:09;;;;;;;56.08;34.35;;;;;;;7.13;63.48;99462.47;9908085;29;20054;-78
2021/03/02 13:58:29;;;;;;;53.80;34.13;;;;;;;7.21;63.55;99459.81;9918121;29;20055;-79
2021/03/02 14:03:51;;;;;;;55.70;34.72;;;;;;;7.45;63.33;99451.31;9904656;29;20065;-78
2021/03/02 14:09:11;;;;;;;59.35;33.67;;;;;;;7.37;63.05;99440.09;9918419;29;20054;-75
2021/03/02 14:14:31;;;;;;;54.40;33.13;;;;;;;7.50;62.89;99441.38;9915673;29;20096;-77
2021/03/02 14:19:51;;;;;;;52.80;34.20;;;;;;;7.60;62.52;99436.88;9908722;29;20047;-76
2021/03/02 14:25:12;;;;;;;54.60;35.13;;;;;;;7.59;62.64;99438.19;9919480;29;20050;-76
2021/03/02 14:30:32;;;;;;;48.38;31.38;;;;;;;7.70;62.63;99427.59;9889613;29;20172;-76
2021/03/02 14:35:52;;;;;;;61.08;34.60;;;;;;;7.75;61.85;99421.19;9920067;29;20043;-77
2021/03/02 14:41:17;;;;;;;49.67;31.52;;;;;;;7.52;61.90;99422.88;9901426;29;20039;-76
2021/03/02 14:46:40;;;;;;;49.25;31.67;;;;;;;7.20;62.16;99419.44;9902448;29;20506;-76
2021/03/02 14:52:01;;;;;;;55.60;34.03;;;;;;;7.11;62.53;99424.13;9896210;29;20051;-77
2021/03/02 14:57:20;;;;;;;55.70;35.25;;;;;;;6.98;62.65;99426.13;9912978;29;20534;-75
2021/03/02 15:02:41;;;;;;;58.60;34.78;;;;;;;6.54;62.60;99422.78;9901655;29;20776;-75
2021/03/02 15:08:02;;;;;;;57.92;35.45;;;;;;;6.17;63.25;99410.41;9902863;29;20078;-76
2021/03/02 15:13:24;;;;;;;61.60;36.20;;;;;;;5.97;63.70;99414.47;9872745;30;20047;-76
2021/03/02 15:18:44;;;;;;;57.08;33.90;;;;;;;5.78;64.07;99397.03;9957479;29;20054;-76
2021/03/02 15:24:04;;;;;;;57.88;33.65;;;;;;;5.74;64.01;99397.34;9958449;29;20042;-76
2021/03/02 15:29:23;;;;;;;53.83;33.67;;;;;;;5.59;64.12;99394.25;9933268;29;20099;-76
2021/03/02 15:34:45;;;;;;;59.05;33.80;;;;;;;5.51;64.29;99396.13;9958241;29;20455;-76
2021/03/02 15:40:06;;;;;;;58.03;34.00;;;;;;;5.33;64.21;99400.34;9932901;29;20057;-76
2021/03/02 15:45:26;;;;;;;54.03;33.97;;;;;;;5.27;64.53;99407.19;9933151;29;20050;-77
2021/03/02 15:50:46;;;;;;;62.83;35.65;;;;;;;5.34;64.90;99399.06;9945260;29;20422;-78
2021/03/02 15:56:06;;;;;;;58.58;33.53;;;;;;;5.42;65.02;99399.97;9944904;29;20054;-76
2021/03/02 16:01:54;;;;;;;63.13;35.08;;;;;;;5.27;65.12;99391.31;9944493;29;20410;-79
2021/03/02 16:07:27;;;;;;;57.20;33.83;;;;;;;5.14;65.49;99388.44;9956923;29;20050;-79
2021/03/02 16:12:51;;;;;;;59.17;34.22;;;;;;;5.07;65.93;99383.47;9944902;29;20057;-77
2021/03/02 16:18:15;;;;;;;56.75;33.45;;;;;;;4.94;65.96;99391.66;9943253;29;20414;-79
2021/03/02 16:23:34;;;;;;;59.83;34.15;;;;;;;4.81;66.51;99384.69;9931899;29;20058;-77
2021/03/02 16:28:54;;;;;;;55.97;33.10;;;;;;;4.59;66.65;99387.66;9944313;29;20051;-78
2021/03/02 16:34:15;;;;;;;54.28;32.65;;;;;;;4.56;67.01;99383.16;9944744;29;20092;-79
2021/03/02 16:39:35;;;;;;;56.90;32.90;;;;;;;4.54;67.02;99389.22;9957517;29;20050;-78
2021/03/02 16:44:55;;;;;;;61.45;33.47;;;;;;;4.47;67.09;99394.53;9969070;29;20046;-80
2021/03/02 16:50:16;;;;;;;53.33;32.22;;;;;;;4.38;67.05;99406.66;9956553;29;20082;-77
2021/03/02 16:55:42;;;;;;;53.95;31.25;;;;;;;4.32;67.34;99400.41;9931176;29;20110;-75
2021/03/02 17:01:28;;;;;;;57.67;33.25;;;;;;;4.27;67.76;99403.97;9943577;29;20054;-76
2021/03/02 17:06:48;;;;;;;54.30;31.95;;;;;;;4.26;67.74;99399.72;9943422;29;20054;-79
2021/03/02 17:12:09;;;;;;;52.88;31.98;;;;;;;4.21;68.31;99401.22;9946409;29;20050;-77
2021/03/02 17:17:29;;;;;;;53.72;30.45;;;;;;;4.19;68.51;99403.75;9946907;29;20054;-75
2021/03/02 17:22:49;;;;;;;55.25;30.48;;;;;;;4.19;68.76;99400.25;9962264;29;20050;-76
2021/03/02 17:28:09;;;;;;;56.72;30.67;;;;;;;4.16;68.48;99410.31;9974985;29;20050;-78
2021/03/02 17:33:29;;;;;;;56.58;30.90;;;;;;;4.09;68.11;99413.63;9974753;29;20053;-74
2021/03/02 17:38:49;;;;;;;52.58;31.60;;;;;;;4.00;68.63;99409.13;9949590;29;20533;-79
2021/03/02 17:44:09;;;;;;;57.85;31.15;;;;;;;4.00;69.50;99408.38;9949685;29;20182;-76
2021/03/02 17:49:29;;;;;;;57.08;30.77;;;;;;;4.00;69.57;99408.38;9949164;29;20460;-77
2021/03/02 17:54:49;;;;;;;59.95;32.15;;;;;;;3.94;69.81;99405.63;9946746;29;20069;-75
2021/03/02 18:00:10;;;;;;;60.05;31.30;;;;;;;3.89;69.37;99409.19;9961059;29;20078;-75
2021/03/02 18:05:30;;;;;;;54.30;30.83;;;;;;;3.90;70.10;99409.94;9936630;29;20051;-79
2021/03/02 18:10:49;;;;;;;62.60;31.40;;;;;;;3.81;70.68;99410.22;9948231;29;20457;-76
2021/03/02 18:16:09;;;;;;;64.63;32.42;;;;;;;3.73;70.75;99402.47;9944987;29;20050;-74
2021/03/02 18:21:29;;;;;;;52.88;30.00;;;;;;;3.63;70.88;99406.78;9899517;29;20051;-76
2021/03/02 18:26:49;;;;;;;60.50;31.77;;;;;;;3.45;71.94;99401.81;9872152;30;20483;-76
2021/03/02 18:32:10;;;;;;;62.53;32.95;;;;;;;3.37;70.82;99404.34;9890092;30;20062;-77
2021/03/02 18:37:30;;;;;;;58.17;30.25;;;;;;;3.38;71.08;99410.63;9885604;30;20085;-81
2021/03/02 18:42:49;;;;;;;61.28;32.17;;;;;;;3.38;71.31;99402.34;9919859;29;20043;-80
2021/03/02 18:48:10;;;;;;;59.50;30.02;;;;;;;3.45;71.51;99401.81;9878873;30;20058;-80
2021/03/02 18:53:30;;;;;;;61.83;31.42;;;;;;;3.41;71.86;99396.56;9885146;30;20055;-75
2021/03/02 18:58:50;;;;;;;57.58;30.60;;;;;;;3.33;72.43;99400.34;9884457;30;20066;-76
2021/03/02 19:04:10;;;;;;;59.40;28.30;;;;;;;3.19;73.71;99399.38;9896755;29;20059;-75
2021/03/02 19:09:30;;;;;;;76.68;29.98;;;;;;;3.14;72.77;99389.09;9884337;30;20058;-75
2021/03/02 19:14:50;;;;;;;52.88;27.90;;;;;;;3.16;72.70;99387.31;9883939;30;20123;-77
2021/03/02 19:20:11;;;;;;;72.30;27.70;;;;;;;3.14;73.09;99383.56;9884111;30;20093;-75
2021/03/02 19:25:31;;;;;;;52.50;26.83;;;;;;;3.07;73.95;99384.84;9858746;30;20053;-75
2021/03/02 19:30:52;;;;;;;63.28;27.67;;;;;;;2.96;73.44;99387.59;9896326;30;20484;-74
2021/03/02 19:36:12;;;;;;;59.65;28.33;;;;;;;2.92;73.11;99375.34;9883156;30;20373;-77
2021/03/02 19:41:31;;;;;;;67.43;28.73;;;;;;;2.83;74.87;99381.88;9883433;29;20047;-77
2021/03/02 19:46:51;;;;;;;67.97;27.90;;;;;;;2.79;75.33;99384.09;9870814;30;20450;-76
2021/03/02 19:52:11;;;;;;;95.25;31.75;;;;;;;2.67;75.97;99385.38;9895405;30;20047;-76
2021/03/02 19:57:32;;;;;;;81.53;31.50;;;;;;;2.72;74.85;99398.41;9894928;30;20055;-75
2021/03/02 20:02:51;;;;;;;72.03;30.25;;;;;;;2.70;76.19;99389.88;9900800;29;20058;-77
2021/03/02 20:08:11;;;;;;;68.07;30.90;;;;;;;2.73;75.67;99386.13;9919677;29;20051;-76
2021/03/02 20:13:31;;;;;;;72.40;29.90;;;;;;;2.80;75.30;99385.63;9918753;29;20051;-76
2021/03/02 20:18:54;;;;;;;61.92;28.50;;;;;;;2.88;74.96;99400.41;9919344;29;20055;-77
2021/03/02 20:24:14;;;;;;;80.20;28.08;;;;;;;2.96;75.07;99400.66;9919795;29;20051;-76
2021/03/02 20:29:35;;;;;;;85.55;30.25;;;;;;;2.91;75.75;99401.44;9919154;29;20051;-76
2021/03/02 20:34:55;;;;;;;56.85;30.00;;;;;;;2.95;75.75;99399.16;9918967;29;20376;-77
2021/03/02 20:40:16;;;;;;;53.35;28.38;;;;;;;2.99;75.54;99386.63;9931473;29;20055;-76
2021/03/02 20:45:35;;;;;;;58.90;28.88;;;;;;;2.96;75.52;99393.13;9931387;29;20078;-77
2021/03/02 20:50:55;;;;;;;60.30;28.92;;;;;;;2.93;77.06;99391.38;9919617;29;20083;-77
2021/03/02 20:56:15;;;;;;;60.17;29.40;;;;;;;2.94;75.93;99384.59;9938628;29;20399;-76
2021/03/02 21:01:34;;;;;;;63.40;28.00;;;;;;;3.00;76.26;99393.63;9925605;29;20115;-75
2021/03/02 21:06:54;;;;;;;138.57;31.02;;;;;;;3.04;76.73;99376.81;9937860;29;20054;-76
2021/03/02 21:12:14;;;;;;;61.22;28.92;;;;;;;2.99;76.73;99394.91;9938742;29;20483;-80
2021/03/02 21:17:35;;;;;;;58.33;26.85;;;;;;;2.98;76.45;99395.38;9938538;29;20057;-80
2021/03/02 21:22:55;;;;;;;76.40;25.65;;;;;;;2.97;76.72;99389.09;9926158;29;20069;-80
2021/03/02 21:28:14;;;;;;;77.05;25.80;;;;;;;2.89;76.61;99388.09;9938482;29;20047;-78
2021/03/02 21:33:34;;;;;;;59.65;26.58;;;;;;;2.84;76.71;99391.63;9925933;29;20058;-79
2021/03/02 21:38:54;;;;;;;54.90;25.75;;;;;;;2.84;76.78;99391.63;9925883;29;20051;-79
2021/03/02 21:44:14;;;;;;;55.47;25.95;;;;;;;2.90;77.10;99389.63;9925445;29;20487;-79
2021/03/02 21:49:34;;;;;;;53.53;25.33;;;;;;;2.89;77.41;99374.31;9938569;29;20042;-84
2021/03/02 21:54:54;;;;;;;46.42;24.90;;;;;;;2.95;77.16;99380.59;9921075;29;20050;-80
2021/03/02 22:00:14;;;;;;;75.53;25.30;;;;;;;2.90;78.05;99377.84;9925382;29;20457;-76
2021/03/02 22:05:34;;;;;;;66.68;24.75;;;;;;;2.84;77.62;99383.38;9926721;29;20055;-77
2021/03/02 22:10:54;;;;;;;93.70;26.75;;;;;;;2.81;78.16;99373.34;9900349;30;20051;-77
2021/03/02 22:16:14;;;;;;;86.72;24.98;;;;;;;2.76;78.56;99369.31;9887154;30;20058;-77
2021/03/02 22:21:33;;;;;;;62.70;24.45;;;;;;;2.78;78.46;99368.81;9899733;30;20055;-76
2021/03/02 22:26:53;;;;;;;82.68;25.75;;;;;;;2.74;78.61;99352.53;9886272;30;20055;-76
2021/03/02 22:32:13;;;;;;;61.38;23.30;;;;;;;2.74;78.55;99360.81;9886329;30;20450;-76
2021/03/02 22:37:33;;;;;;;77.07;24.08;;;;;;;2.59;78.64;99352.78;9886688;30;20051;-76
2021/03/02 22:42:53;;;;;;;59.63;22.65;;;;;;;2.49;78.99;99342.50;9886400;30;20048;-76
2021/03/02 22:48:13;;;;;;;73.43;23.83;;;;;;;2.50;79.08;99347.50;9898468;30;20494;-79
2021/03/02 22:53:33;;;;;;;62.42;21.67;;;;;;;2.52;79.52;99333.25;9897693;30;20442;-74
2021/03/02 22:58:53;;;;;;;76.93;23.33;;;;;;;2.47;79.12;99337.50;9897711;30;20134;-79
2021/03/02 23:04:14;;;;;;;83.07;22.67;;;;;;;2.45;79.70;99333.75;9896984;29;20054;-76
2021/03/02 23:09:34;;;;;;;71.03;20.88;;;;;;;2.37;79.67;99336.25;9883767;30;20544;-77
2021/03/02 23:14:54;;;;;;;58.03;21.73;;;;;;;2.38;80.09;99329.47;9884281;29;20055;-77
2021/03/02 23:20:15;;;;;;;59.38;21.98;;;;;;;2.41;80.06;99325.72;9896470;30;20047;-77
2021/03/02 23:25:34;;;;;;;48.88;19.90;;;;;;;2.35;80.41;99322.22;9871421;30;20055;-77
2021/03/02 23:30:54;;;;;;;43.17;18.88;;;;;;;2.25;80.44;99313.44;9883957;30;20073;-77
2021/03/02 23:36:14;;;;;;;52.15;18.42;;;;;;;2.17;80.51;99328.97;9896370;30;20070;-76
2021/03/02 23:41:34;;;;;;;78.72;20.25;;;;;;;2.08;80.48;99318.19;9883722;30;20369;-77
2021/03/02 23:46:54;;;;;;;74.70;20.80;;;;;;;2.08;80.40;99318.19;9883828;30;20043;-76
2021/03/02 23:52:15;;;;;;;101.95;21.35;;;;;;;2.10;81.21;99320.44;9870903;30;20043;-76
2021/03/02 23:57:34;;;;;;;65.85;19.90;;;;;;;2.14;81.10;99316.22;9895756;30;20492;-76
